createdAt,value
2022-10-02T00:02:41.143Z,98981.88
2022-10-02T00:05:23.347Z,98990.31
2022-10-02T00:07:58.738Z,98985.53
2022-10-02T00:10:35.722Z,98977.66
2022-10-02T00:13:07.774Z,98979.59
2022-10-02T00:15:37.593Z,98986.41
2022-10-02T00:18:12.402Z,98990.81
2022-10-02T00:20:58.220Z,98983.78
2022-10-02T00:23:45.671Z,98982.47
2022-10-02T00:26:27.039Z,98978.81
2022-10-02T00:29:20.132Z,98979.13
2022-10-02T00:31:55.544Z,98995.38
2022-10-02T00:34:31.717Z,98994.16
2022-10-02T00:37:16.973Z,98989.41
2022-10-02T00:39:59.414Z,98999.94
2022-10-02T00:42:56.037Z,98993.13
2022-10-02T00:45:23.274Z,99001.13
2022-10-02T00:48:12.291Z,98985.84
2022-10-02T00:51:01.065Z,99004.13
2022-10-02T00:53:46.137Z,99007.16
2022-10-02T00:56:34.709Z,98999.25
2022-10-02T00:59:17.351Z,98995.78
2022-10-02T01:01:53.701Z,98967.03
2022-10-02T01:04:30.115Z,98991.19
2022-10-02T01:06:57.900Z,98975.63
2022-10-02T01:09:26.434Z,98987.13
2022-10-02T01:11:55.590Z,98996.81
2022-10-02T01:14:35.675Z,98998.84
2022-10-02T01:17:06.085Z,98994.53
2022-10-02T01:19:41.686Z,98978.03
2022-10-02T01:22:45.758Z,98995.13
2022-10-02T01:25:13.300Z,99000.50
2022-10-02T01:27:40.745Z,99000.97
2022-10-02T01:30:10.586Z,99007.94
2022-10-02T01:32:42.481Z,98995.16
2022-10-02T01:35:10.539Z,98990.19
2022-10-02T01:37:41.643Z,99014.13
2022-10-02T01:40:11.946Z,99000.28
2022-10-02T01:42:40.881Z,99000.97
2022-10-02T01:45:09.747Z,99013.06
2022-10-02T01:48:01.509Z,99023.00
2022-10-02T01:51:17.859Z,99026.28
2022-10-02T01:53:52.069Z,99025.56
2022-10-02T01:56:38.962Z,99023.41
2022-10-02T01:59:21.467Z,99037.75
2022-10-02T02:02:11.711Z,99036.19
2022-10-02T02:04:41.978Z,99029.16
2022-10-02T02:07:35.703Z,99022.44
2022-10-02T02:10:33.989Z,99017.94
2022-10-02T02:13:06.013Z,99010.13
2022-10-02T02:15:53.419Z,99021.84
2022-10-02T02:18:33.891Z,99002.00
2022-10-02T02:21:10.324Z,99017.19
2022-10-02T02:23:39.853Z,99026.28
2022-10-02T02:26:12.595Z,99029.88
2022-10-02T02:28:46.590Z,99027.09
2022-10-02T02:31:21.484Z,99007.66
2022-10-02T02:33:54.803Z,99024.25
2022-10-02T02:36:26.682Z,99005.97
2022-10-02T02:39:04.552Z,99033.91
2022-10-02T02:41:39.349Z,99029.28
2022-10-02T02:44:24.861Z,99046.25
2022-10-02T02:47:04.787Z,99027.69
2022-10-02T02:49:48.441Z,99020.28
2022-10-02T02:52:45.543Z,99021.72
2022-10-02T02:55:22.725Z,98995.56
2022-10-02T02:57:56.016Z,99030.53
2022-10-02T03:00:24.934Z,99020.41
2022-10-02T03:02:54.766Z,99002.59
2022-10-02T03:05:24.475Z,99027.44
2022-10-02T03:07:55.636Z,99011.94
2022-10-02T03:10:34.797Z,99020.53
2022-10-02T03:13:26.729Z,99010.97
2022-10-02T03:16:17.047Z,99024.59
2022-10-02T03:19:03.307Z,99021.72
2022-10-02T03:22:12.244Z,99027.81
2022-10-02T03:24:49.577Z,99036.88
2022-10-02T03:27:35.261Z,99048.94
2022-10-02T03:30:07.915Z,99047.06
2022-10-02T03:32:39.472Z,99038.78
2022-10-02T03:35:10.664Z,99027.06
2022-10-02T03:37:41.796Z,99021.47
2022-10-02T03:40:10.445Z,99031.72
2022-10-02T03:42:42.882Z,99050.47
2022-10-02T03:45:10.283Z,99023.00
2022-10-02T03:47:37.554Z,99063.72
2022-10-02T03:50:04.984Z,99046.50
2022-10-02T03:52:34.189Z,99043.16
2022-10-02T03:55:13.267Z,99045.91
2022-10-02T03:57:44.377Z,99049.75
2022-10-02T04:00:26.670Z,99018.75
2022-10-02T04:03:00.606Z,99045.06
2022-10-02T04:05:46.267Z,99054.38
2022-10-02T04:08:37.329Z,99032.72
2022-10-02T04:11:17.961Z,99043.63
2022-10-02T04:13:50.823Z,99069.91
2022-10-02T04:16:24.678Z,99047.94
2022-10-02T04:19:15.556Z,99065.03
2022-10-02T04:22:33.449Z,99069.84
2022-10-02T04:25:20.700Z,99064.38
2022-10-02T04:28:00.288Z,99060.50
2022-10-02T04:30:30.308Z,99069.72
2022-10-02T04:33:06.822Z,99072.13
2022-10-02T04:35:44.680Z,99047.50
2022-10-02T04:38:43.163Z,99074.31
2022-10-02T04:41:28.769Z,99081.47
2022-10-02T04:44:23.846Z,99081.56
2022-10-02T04:47:08.481Z,99077.72
2022-10-02T04:50:01.636Z,99084.09
2022-10-02T04:52:56.373Z,99067.44
2022-10-02T04:55:39.339Z,99077.88
2022-10-02T04:58:20.907Z,99079.66
2022-10-02T05:01:22.775Z,99065.09
2022-10-02T05:04:08.282Z,99067.81
2022-10-02T05:07:13.451Z,99055.66
2022-10-02T05:09:56.039Z,99061.00
2022-10-02T05:12:34.244Z,99063.47
2022-10-02T05:15:29.400Z,99064.16
2022-10-02T05:18:21.407Z,99066.78
2022-10-02T05:21:04.043Z,99069.97
2022-10-02T05:23:43.258Z,99075.72
2022-10-02T05:26:31.958Z,99086.22
2022-10-02T05:29:11.432Z,99084.09
2022-10-02T05:32:15.918Z,99082.19
2022-10-02T05:34:45.718Z,99075.75
2022-10-02T05:37:29.670Z,99075.03
2022-10-02T05:40:04.418Z,99068.13
2022-10-02T05:42:44.343Z,99077.94
2022-10-02T05:45:23.484Z,99084.13
2022-10-02T05:47:54.151Z,99064.75
2022-10-02T05:50:26.769Z,99082.19
2022-10-02T05:52:56.863Z,99078.38
2022-10-02T05:55:34.158Z,99083.31
2022-10-02T05:58:07.282Z,99085.09
2022-10-02T06:01:09.851Z,99083.03
2022-10-02T06:03:49.994Z,99080.28
2022-10-02T06:06:33.755Z,99066.56
2022-10-02T06:09:09.275Z,99065.56
2022-10-02T06:11:52.825Z,99077.50
2022-10-02T06:15:01.832Z,99065.31
2022-10-02T06:17:39.757Z,99078.09
2022-10-02T06:20:39.273Z,99088.03
2022-10-02T06:23:10.703Z,99091.34
2022-10-02T06:25:53.065Z,99087.31
2022-10-02T06:28:23.990Z,99095.19
2022-10-02T06:31:12.788Z,99115.53
2022-10-02T06:33:40.775Z,99089.47
2022-10-02T06:36:26.711Z,99114.19
2022-10-02T06:39:05.942Z,99110.44
2022-10-02T06:42:15.532Z,99108.38
2022-10-02T06:45:03.625Z,99126.09
2022-10-02T06:47:45.723Z,99110.28
2022-10-02T06:50:16.310Z,99115.22
2022-10-02T06:53:15.441Z,99114.06
2022-10-02T06:56:27.548Z,99105.78
2022-10-02T06:59:00.654Z,99112.66
2022-10-02T07:01:34.210Z,99098.22
2022-10-02T07:04:34.137Z,99093.41
2022-10-02T07:07:20.347Z,99103.31
2022-10-02T07:10:06.247Z,99112.19
2022-10-02T07:13:05.945Z,99117.66
2022-10-02T07:15:48.329Z,99115.03
2022-10-02T07:18:58.115Z,99122.13
2022-10-02T07:21:40.370Z,99118.09
2022-10-02T07:24:21.912Z,99104.59
2022-10-02T07:27:19.791Z,99123.75
2022-10-02T07:29:53.029Z,99110.66
2022-10-02T07:33:00.647Z,99090.56
2022-10-02T07:35:43.977Z,99101.88
2022-10-02T07:38:51.156Z,99098.72
2022-10-02T07:41:42.555Z,99100.91
2022-10-02T07:44:31.171Z,99097.47
2022-10-02T07:47:15.296Z,99102.16
2022-10-02T07:50:06.192Z,99097.13
2022-10-02T07:52:41.365Z,99093.44
2022-10-02T07:55:22.686Z,99075.13
2022-10-02T07:58:08.937Z,99096.84
2022-10-02T08:00:44.185Z,99092.16
2022-10-02T08:03:21.255Z,99071.78
2022-10-02T08:05:54.932Z,99075.84
2022-10-02T08:08:44.721Z,99068.66
2022-10-02T08:11:21.661Z,99096.81
2022-10-02T08:13:54.260Z,99111.91
2022-10-02T08:16:27.767Z,99110.38
2022-10-02T08:19:01.341Z,99074.91
2022-10-02T08:21:34.653Z,99106.13
2022-10-02T08:24:30.280Z,99101.25
2022-10-02T08:27:11.386Z,99083.44
2022-10-02T08:30:03.796Z,99088.75
2022-10-02T08:32:36.459Z,99096.94
2022-10-02T08:35:22.650Z,99064.91
2022-10-02T08:37:59.195Z,99098.84
2022-10-02T08:40:39.728Z,99090.88
2022-10-02T08:43:18.850Z,99110.75
2022-10-02T08:46:16.925Z,99097.69
2022-10-02T08:48:44.327Z,99109.94
2022-10-02T08:51:52.351Z,99114.97
2022-10-02T08:55:04.981Z,99106.56
2022-10-02T08:57:54.127Z,99102.59
2022-10-02T09:01:04.673Z,99117.47
2022-10-02T09:03:44.467Z,99122.69
2022-10-02T09:06:46.184Z,99121.09
2022-10-02T09:09:36.003Z,99113.97
2022-10-02T09:12:26.597Z,99121.03
2022-10-02T09:15:08.214Z,99120.19
2022-10-02T09:17:48.666Z,99104.47
2022-10-02T09:20:35.085Z,99118.13
2022-10-02T09:23:40.055Z,99127.81
2022-10-02T09:26:35.873Z,99120.16
2022-10-02T09:29:28.823Z,99110.47
2022-10-02T09:32:17.896Z,99121.06
2022-10-02T09:35:27.539Z,99110.50
2022-10-02T09:38:05.498Z,99112.00
2022-10-02T09:40:54.560Z,99111.22
2022-10-02T09:44:01.703Z,99131.34
2022-10-02T09:47:07.968Z,99133.66
2022-10-02T09:49:59.828Z,99143.00
2022-10-02T09:52:50.759Z,99139.53
2022-10-02T09:55:53.261Z,99113.84
2022-10-02T09:58:45.300Z,99144.22
2022-10-02T10:01:30.351Z,99136.19
2022-10-02T10:04:20.479Z,99135.81
2022-10-02T10:07:17.282Z,99114.28
2022-10-02T10:09:55.268Z,99127.56
2022-10-02T10:12:25.785Z,99133.19
2022-10-02T10:15:20.337Z,99124.59
2022-10-02T10:18:43.560Z,99101.59
2022-10-02T10:21:36.268Z,99114.44
2022-10-02T10:24:30.363Z,99120.38
2022-10-02T10:27:01.489Z,99128.06
2022-10-02T10:30:04.516Z,99124.47
2022-10-02T10:33:00.540Z,99114.22
2022-10-02T10:35:55.534Z,99128.06
2022-10-02T10:38:34.438Z,99126.84
2022-10-02T10:41:34.097Z,99120.09
2022-10-02T10:44:19.299Z,99118.16
2022-10-02T10:47:16.000Z,99125.56
2022-10-02T10:50:16.729Z,99115.28
2022-10-02T10:53:23.287Z,99109.78
2022-10-02T10:56:19.988Z,99115.53
2022-10-02T10:59:06.605Z,99114.50
2022-10-02T11:01:52.925Z,99120.50
2022-10-02T11:04:40.828Z,99118.19
2022-10-02T11:07:37.983Z,99118.50
2022-10-02T11:10:19.822Z,99114.19
2022-10-02T11:13:00.084Z,99114.78
2022-10-02T11:15:56.604Z,99115.94
2022-10-02T11:18:29.370Z,99106.53
2022-10-02T11:21:07.010Z,99110.13
2022-10-02T11:23:49.223Z,99083.00
2022-10-02T11:26:51.316Z,99101.50
2022-10-02T11:29:31.232Z,99100.72
2022-10-02T11:32:28.227Z,99106.66
2022-10-02T11:35:29.079Z,99105.53
2022-10-02T11:38:15.473Z,99062.97
2022-10-02T11:41:17.849Z,99103.16
2022-10-02T11:44:05.781Z,99099.31
2022-10-02T11:47:12.607Z,99101.34
2022-10-02T11:50:01.286Z,99091.06
2022-10-02T11:52:58.847Z,99093.69
2022-10-02T11:55:50.521Z,99092.75
2022-10-02T11:58:49.696Z,99087.47
2022-10-02T12:01:53.055Z,99091.19
2022-10-02T12:04:29.800Z,99086.00
2022-10-02T12:07:18.312Z,99090.91
2022-10-02T12:09:58.163Z,99086.97
2022-10-02T12:13:18.685Z,99081.84
2022-10-02T12:16:27.017Z,99069.75
2022-10-02T12:19:15.338Z,99070.22
2022-10-02T12:22:19.854Z,99071.59
2022-10-02T12:25:10.957Z,99032.00
2022-10-02T12:27:46.012Z,99069.25
2022-10-02T12:30:25.513Z,99064.81
2022-10-02T12:33:09.712Z,99051.72
2022-10-02T12:35:58.244Z,99041.69
2022-10-02T12:38:51.161Z,99041.47
2022-10-02T12:41:37.546Z,99039.41
2022-10-02T12:44:37.523Z,99036.59
2022-10-02T12:47:32.068Z,99032.63
2022-10-02T12:50:17.872Z,99031.75
2022-10-02T12:54:08.896Z,99038.38
2022-10-02T12:57:08.786Z,99043.97
2022-10-02T13:00:20.390Z,99005.22
2022-10-02T13:03:23.073Z,99025.19
2022-10-02T13:06:21.042Z,99023.47
2022-10-02T13:09:18.861Z,99014.97
2022-10-02T13:12:12.622Z,99012.72
2022-10-02T13:14:48.882Z,99010.44
2022-10-02T13:17:57.680Z,99007.47
2022-10-02T13:20:39.203Z,99011.53
2022-10-02T13:23:32.239Z,99014.88
2022-10-02T13:26:24.995Z,98996.22
2022-10-02T13:29:15.280Z,99010.94
2022-10-02T13:32:10.593Z,99017.50
2022-10-02T13:34:59.733Z,99006.88
2022-10-02T13:38:04.360Z,99011.97
2022-10-02T13:40:37.139Z,99002.78
2022-10-02T13:43:26.660Z,98973.94
2022-10-02T13:46:28.977Z,98989.81
2022-10-02T13:49:01.957Z,98986.28
2022-10-02T13:51:39.879Z,98970.19
2022-10-02T13:54:44.344Z,98979.50
2022-10-02T13:57:43.741Z,98974.38
2022-10-02T14:00:17.313Z,98977.13
2022-10-02T14:02:51.089Z,98975.69
2022-10-02T14:05:35.213Z,98952.09
2022-10-02T14:08:39.737Z,98957.19
2022-10-02T14:11:24.348Z,98951.47
2022-10-02T14:14:25.691Z,98957.03
2022-10-02T14:17:03.434Z,98953.44
2022-10-02T14:20:19.638Z,98918.22
2022-10-02T14:23:21.243Z,98941.94
2022-10-02T14:26:02.716Z,98943.88
2022-10-02T14:29:18.377Z,98934.41
2022-10-02T14:32:38.907Z,98947.44
2022-10-02T14:35:09.766Z,98947.59
2022-10-02T14:38:29.189Z,98940.44
2022-10-02T14:40:59.442Z,98928.09
2022-10-02T14:44:12.087Z,98943.91
2022-10-02T14:46:59.828Z,98943.78
2022-10-02T14:50:11.913Z,98932.44
2022-10-02T14:53:13.160Z,98925.72
2022-10-02T14:55:50.779Z,98932.22
2022-10-02T14:58:53.279Z,98910.94
2022-10-02T15:01:23.135Z,98942.03
2022-10-02T15:04:04.866Z,98928.28
2022-10-02T15:06:41.364Z,98923.16
2022-10-02T15:09:24.353Z,98933.16
2022-10-02T15:12:02.674Z,98935.47
2022-10-02T15:14:41.867Z,98927.66
2022-10-02T15:17:36.441Z,98919.06
2022-10-02T15:20:47.931Z,98902.59
2022-10-02T15:23:46.724Z,98893.28
2022-10-02T15:26:35.718Z,98897.34
2022-10-02T15:29:14.794Z,98913.56
2022-10-02T15:32:09.368Z,98910.94
2022-10-02T15:34:46.730Z,98928.81
2022-10-02T15:37:41.604Z,98903.69
2022-10-02T15:40:27.397Z,98900.50
2022-10-02T15:43:24.630Z,98887.13
2022-10-02T15:45:58.340Z,98897.22
2022-10-02T15:48:43.712Z,98891.81
2022-10-02T15:51:44.563Z,98882.38
2022-10-02T15:54:11.610Z,98876.97
2022-10-02T15:56:39.198Z,98855.47
2022-10-02T15:59:50.223Z,98847.75
2022-10-02T16:02:36.947Z,98861.28
2022-10-02T16:05:32.099Z,98852.53
2022-10-02T16:08:21.275Z,98851.00
2022-10-02T16:11:19.448Z,98835.69
2022-10-02T16:14:09.573Z,98836.69
2022-10-02T16:16:36.855Z,98842.16
2022-10-02T16:19:38.947Z,98827.34
2022-10-02T16:22:37.244Z,98824.72
2022-10-02T16:25:16.497Z,98824.94
2022-10-02T16:28:09.489Z,98837.69
2022-10-02T16:31:10.821Z,98832.81
2022-10-02T16:33:51.006Z,98825.53
2022-10-02T16:36:34.507Z,98819.41
2022-10-02T16:39:11.012Z,98815.09
2022-10-02T16:42:02.352Z,98818.59
2022-10-02T16:44:47.368Z,98814.66
2022-10-02T16:47:27.763Z,98831.88
2022-10-02T16:50:25.001Z,98807.28
2022-10-02T16:53:04.031Z,98821.84
2022-10-02T16:55:47.761Z,98826.63
2022-10-02T16:58:33.229Z,98819.66
2022-10-02T17:01:22.475Z,98801.91
2022-10-02T17:03:58.947Z,98807.09
2022-10-02T17:06:34.500Z,98801.25
2022-10-02T17:09:11.972Z,98805.56
2022-10-02T17:12:19.791Z,98789.44
2022-10-02T17:15:08.989Z,98790.88
2022-10-02T17:18:01.634Z,98780.72
2022-10-02T17:20:40.933Z,98784.31
2022-10-02T17:23:20.877Z,98772.00
2022-10-02T17:26:07.321Z,98770.03
2022-10-02T17:29:00.749Z,98749.09
2022-10-02T17:31:42.422Z,98768.41
2022-10-02T17:34:30.782Z,98754.41
2022-10-02T17:37:02.559Z,98749.16
2022-10-02T17:39:49.077Z,98739.72
2022-10-02T17:42:33.362Z,98726.00
2022-10-02T17:45:15.701Z,98722.97
2022-10-02T17:48:03.990Z,98720.50
2022-10-02T17:50:49.594Z,98717.53
2022-10-02T17:54:01.994Z,98723.44
2022-10-02T17:56:47.323Z,98727.53
2022-10-02T17:59:27.672Z,98723.50
2022-10-02T18:02:17.322Z,98733.09
2022-10-02T18:05:00.003Z,98679.56
2022-10-02T18:08:06.697Z,98681.00
2022-10-02T18:10:48.282Z,98688.56
2022-10-02T18:13:44.062Z,98698.72
2022-10-02T18:16:33.621Z,98691.00
2022-10-02T18:19:36.773Z,98689.13
2022-10-02T18:22:20.524Z,98680.53
2022-10-02T18:24:52.373Z,98681.72
2022-10-02T18:27:38.652Z,98675.75
2022-10-02T18:30:18.284Z,98668.25
2022-10-02T18:33:05.186Z,98653.00
2022-10-02T18:35:38.475Z,98654.91
2022-10-02T18:38:41.025Z,98639.16
2022-10-02T18:41:28.112Z,98625.09
2022-10-02T18:44:21.020Z,98624.97
2022-10-02T18:46:59.417Z,98605.75
2022-10-02T18:49:29.923Z,98594.31
2022-10-02T18:52:28.771Z,98582.38
2022-10-02T18:55:05.544Z,98570.94
2022-10-02T18:58:09.858Z,98573.78
2022-10-02T19:01:00.133Z,98574.75
2022-10-02T19:03:28.186Z,98574.50
2022-10-02T19:06:09.268Z,98550.75
2022-10-02T19:09:07.486Z,98544.06
2022-10-02T19:11:47.285Z,98522.59
2022-10-02T19:14:23.747Z,98524.38
2022-10-02T19:17:01.394Z,98523.44
2022-10-02T19:19:29.751Z,98520.81
2022-10-02T19:22:01.903Z,98522.59
2022-10-02T19:24:34.462Z,98520.97
2022-10-02T19:27:07.574Z,98564.59
2022-10-02T19:29:40.163Z,98573.00
2022-10-02T19:32:18.548Z,98541.66
2022-10-02T19:34:48.456Z,98567.66
2022-10-02T19:37:18.467Z,98539.13
2022-10-02T19:39:54.332Z,98521.22
2022-10-02T19:42:28.158Z,98465.69
2022-10-02T19:45:03.304Z,98453.81
2022-10-02T19:47:39.140Z,98440.44
2022-10-02T19:50:08.759Z,98447.78
2022-10-02T19:52:47.802Z,98458.28
2022-10-02T19:55:22.832Z,98446.88
2022-10-02T19:57:54.337Z,98456.13
2022-10-02T20:00:22.624Z,98470.31
2022-10-02T20:02:55.890Z,98404.00
2022-10-02T20:05:29.961Z,98448.03
2022-10-02T20:08:05.867Z,98452.38
2022-10-02T20:10:41.754Z,98478.59
2022-10-02T20:13:20.273Z,98507.09
2022-10-02T20:16:13.136Z,98495.47
2022-10-02T20:18:40.579Z,98477.91
2022-10-02T20:21:39.040Z,98474.19
2022-10-02T20:24:17.178Z,98479.63
2022-10-02T20:26:47.982Z,98445.94
2022-10-02T20:29:23.680Z,98477.34
2022-10-02T20:32:02.312Z,98484.88
2022-10-02T20:34:43.974Z,98470.97
2022-10-02T20:37:35.063Z,98442.94
2022-10-02T20:40:15.776Z,98438.91
2022-10-02T20:42:53.446Z,98440.13
2022-10-02T20:45:27.004Z,98438.59
2022-10-02T20:48:00.610Z,98413.69
2022-10-02T20:50:44.774Z,98383.78
2022-10-02T20:53:53.408Z,98399.94
2022-10-02T20:56:23.944Z,98394.69
2022-10-02T20:59:04.697Z,98399.69
2022-10-02T21:02:01.471Z,98372.16
2022-10-02T21:04:50.304Z,98380.22
2022-10-02T21:07:28.384Z,98343.53
2022-10-02T21:10:04.607Z,98357.03
2022-10-02T21:12:44.917Z,98330.41
2022-10-02T21:15:18.434Z,98356.63
2022-10-02T21:18:14.799Z,98359.25
2022-10-02T21:21:19.838Z,98358.84
2022-10-02T21:24:20.574Z,98356.13
2022-10-02T21:27:08.270Z,98359.31
2022-10-02T21:29:41.632Z,98359.88
2022-10-02T21:32:29.123Z,98361.41
2022-10-02T21:35:17.043Z,98335.13
2022-10-02T21:37:50.438Z,98347.63
2022-10-02T21:40:54.736Z,98347.34
2022-10-02T21:44:18.045Z,98349.56
2022-10-02T21:47:23.425Z,98335.47
2022-10-02T21:50:22.779Z,98341.88
2022-10-02T21:53:33.412Z,98348.06
2022-10-02T21:56:09.651Z,98333.72
2022-10-02T21:58:36.707Z,98336.09
2022-10-02T22:01:06.827Z,98326.97
2022-10-02T22:04:11.247Z,98319.78
2022-10-02T22:07:12.393Z,98297.06
2022-10-02T22:09:45.917Z,98301.00
2022-10-02T22:12:57.038Z,98304.44
2022-10-02T22:15:42.651Z,98300.44
2022-10-02T22:18:23.451Z,98298.50
2022-10-02T22:21:23.252Z,98284.94
2022-10-02T22:24:03.643Z,98299.91
2022-10-02T22:27:00.583Z,98293.66
2022-10-02T22:29:47.974Z,98273.63
2022-10-02T22:33:08.985Z,98288.84
2022-10-02T22:35:42.418Z,98282.91
2022-10-02T22:38:18.679Z,98290.69
2022-10-02T22:41:21.227Z,98276.44
2022-10-02T22:43:56.084Z,98263.41
2022-10-02T22:46:29.045Z,98270.59
2022-10-02T22:49:03.467Z,98252.31
2022-10-02T22:51:47.090Z,98270.06
2022-10-02T22:54:14.437Z,98259.28
2022-10-02T22:56:53.801Z,98238.78
2022-10-02T22:59:32.941Z,98229.78
2022-10-02T23:02:26.496Z,98232.28
2022-10-02T23:04:59.399Z,98201.97
2022-10-02T23:07:35.024Z,98229.09
2022-10-02T23:10:15.234Z,98193.69
2022-10-02T23:13:02.334Z,98214.13
2022-10-02T23:15:33.220Z,98216.59
2022-10-02T23:18:06.671Z,98162.63
2022-10-02T23:20:44.677Z,98178.25
2022-10-02T23:23:23.079Z,98149.88
2022-10-02T23:26:00.025Z,98158.75
2022-10-02T23:28:35.085Z,98158.28
2022-10-02T23:31:30.645Z,98174.47
2022-10-02T23:34:10.238Z,98174.13
2022-10-02T23:36:55.104Z,98124.47
2022-10-02T23:39:27.859Z,98154.28
2022-10-02T23:41:58.879Z,98139.19
2022-10-02T23:44:29.156Z,98146.91
2022-10-02T23:46:56.376Z,98139.56
2022-10-02T23:49:30.697Z,98118.75
2022-10-02T23:53:16.147Z,98130.78
2022-10-02T23:55:49.904Z,98121.91
2022-10-02T23:58:42.645Z,98113.84
